sensor_id;sensor_type;location;lat;lon;timestamp;temperature;humidity
9383;DHT22;4731;49.708;10.816;2023-02-15T00:00:30;-0.20;99.90
9383;DHT22;4731;49.708;10.816;2023-02-15T00:02:56;-0.30;99.90
9383;DHT22;4731;49.708;10.816;2023-02-15T00:05:23;-0.40;99.90
9383;DHT22;4731;49.708;10.816;2023-02-15T00:07:50;-0.40;99.90
9383;DHT22;4731;49.708;10.816;2023-02-15T00:10:17;-0.40;99.90
9383;DHT22;4731;49.708;10.816;2023-02-15T00:12:43;-0.50;99.90
9383;DHT22;4731;49.708;10.816;2023-02-15T00:15:11;-0.60;99.90
9383;DHT22;4731;49.708;10.816;2023-02-15T00:17:38;-0.60;99.90
9383;DHT22;4731;49.708;10.816;2023-02-15T00:20:06;-0.60;99.90
9383;DHT22;4731;49.708;10.816;2023-02-15T00:22:33;-0.60;99.90
9383;DHT22;4731;49.708;10.816;2023-02-15T00:24:59;-0.60;99.90
9383;DHT22;4731;49.708;10.816;2023-02-15T00:27:26;-0.60;99.90
9383;DHT22;4731;49.708;10.816;2023-02-15T00:29:53;-0.60;99.90
9383;DHT22;4731;49.708;10.816;2023-02-15T00:32:21;-0.60;99.90
9383;DHT22;4731;49.708;10.816;2023-02-15T00:34:47;-0.50;99.90
9383;DHT22;4731;49.708;10.816;2023-02-15T00:37:14;-0.60;99.90
9383;DHT22;4731;49.708;10.816;2023-02-15T00:39:41;-0.50;99.90
9383;DHT22;4731;49.708;10.816;2023-02-15T00:42:08;-0.60;99.90
9383;DHT22;4731;49.708;10.816;2023-02-15T00:44:35;-0.60;99.90
9383;DHT22;4731;49.708;10.816;2023-02-15T00:47:02;-0.50;99.90
9383;DHT22;4731;49.708;10.816;2023-02-15T00:49:30;-0.60;99.90
9383;DHT22;4731;49.708;10.816;2023-02-15T00:51:57;-0.50;99.90
9383;DHT22;4731;49.708;10.816;2023-02-15T00:54:24;-0.60;99.90
9383;DHT22;4731;49.708;10.816;2023-02-15T00:56:50;-0.50;99.90
9383;DHT22;4731;49.708;10.816;2023-02-15T00:59:17;-0.60;99.90
9383;DHT22;4731;49.708;10.816;2023-02-15T01:01:44;-0.50;99.90
9383;DHT22;4731;49.708;10.816;2023-02-15T01:04:10;-0.60;99.90
9383;DHT22;4731;49.708;10.816;2023-02-15T01:06:39;-0.50;99.90
9383;DHT22;4731;49.708;10.816;2023-02-15T01:09:05;-0.50;99.90
9383;DHT22;4731;49.708;10.816;2023-02-15T01:11:32;-0.50;99.90
9383;DHT22;4731;49.708;10.816;2023-02-15T01:13:59;-0.50;99.90
9383;DHT22;4731;49.708;10.816;2023-02-15T01:16:26;-0.50;99.90
9383;DHT22;4731;49.708;10.816;2023-02-15T01:18:54;-0.60;99.90
9383;DHT22;4731;49.708;10.816;2023-02-15T01:21:22;-0.70;99.90
9383;DHT22;4731;49.708;10.816;2023-02-15T01:23:50;-0.60;99.90
9383;DHT22;4731;49.708;10.816;2023-02-15T01:26:17;-0.60;99.90
9383;DHT22;4731;49.708;10.816;2023-02-15T01:28:45;-0.60;99.90
9383;DHT22;4731;49.708;10.816;2023-02-15T01:31:13;-0.70;99.90
9383;DHT22;4731;49.708;10.816;2023-02-15T01:33:40;-0.60;99.90
9383;DHT22;4731;49.708;10.816;2023-02-15T01:36:07;-0.50;99.90
9383;DHT22;4731;49.708;10.816;2023-02-15T01:38:35;-0.60;99.90
9383;DHT22;4731;49.708;10.816;2023-02-15T01:41:09;-0.60;99.90
9383;DHT22;4731;49.708;10.816;2023-02-15T01:43:54;-0.50;99.90
9383;DHT22;4731;49.708;10.816;2023-02-15T01:46:25;-0.60;99.90
9383;DHT22;4731;49.708;10.816;2023-02-15T01:48:56;-0.60;99.90
9383;DHT22;4731;49.708;10.816;2023-02-15T01:51:26;-0.50;99.90
9383;DHT22;4731;49.708;10.816;2023-02-15T01:53:56;-0.60;99.90
9383;DHT22;4731;49.708;10.816;2023-02-15T01:56:29;-0.60;99.90
9383;DHT22;4731;49.708;10.816;2023-02-15T01:58:59;-0.60;99.90
9383;DHT22;4731;49.708;10.816;2023-02-15T02:01:29;-0.60;99.90
9383;DHT22;4731;49.708;10.816;2023-02-15T02:04:00;-0.10;99.90
9383;DHT22;4731;49.708;10.816;2023-02-15T02:06:29;-0.50;99.90
9383;DHT22;4731;49.708;10.816;2023-02-15T02:08:57;-0.60;99.90
9383;DHT22;4731;49.708;10.816;2023-02-15T02:11:25;-0.50;99.90
9383;DHT22;4731;49.708;10.816;2023-02-15T02:13:54;-0.50;99.90
9383;DHT22;4731;49.708;10.816;2023-02-15T02:16:25;-0.50;99.90
9383;DHT22;4731;49.708;10.816;2023-02-15T02:19:03;-0.50;99.90
9383;DHT22;4731;49.708;10.816;2023-02-15T02:22:02;-0.50;99.90
9383;DHT22;4731;49.708;10.816;2023-02-15T02:24:57;-0.40;99.90
9383;DHT22;4731;49.708;10.816;2023-02-15T02:27:32;-0.50;99.90
9383;DHT22;4731;49.708;10.816;2023-02-15T02:30:35;-0.60;99.90
9383;DHT22;4731;49.708;10.816;2023-02-15T02:33:28;-0.70;99.90
9383;DHT22;4731;49.708;10.816;2023-02-15T02:36:05;-0.70;99.90
9383;DHT22;4731;49.708;10.816;2023-02-15T02:38:46;-0.60;99.90
9383;DHT22;4731;49.708;10.816;2023-02-15T02:41:20;-0.80;99.90
9383;DHT22;4731;49.708;10.816;2023-02-15T02:43:52;-0.70;99.90
9383;DHT22;4731;49.708;10.816;2023-02-15T02:46:24;-0.70;99.90
9383;DHT22;4731;49.708;10.816;2023-02-15T02:48:54;-0.80;99.90
9383;DHT22;4731;49.708;10.816;2023-02-15T02:51:21;-0.80;99.90
9383;DHT22;4731;49.708;10.816;2023-02-15T02:53:50;-0.70;99.90
9383;DHT22;4731;49.708;10.816;2023-02-15T02:56:22;-0.60;99.90
9383;DHT22;4731;49.708;10.816;2023-02-15T02:58:53;-0.70;99.90
9383;DHT22;4731;49.708;10.816;2023-02-15T03:01:25;-0.60;99.90
9383;DHT22;4731;49.708;10.816;2023-02-15T03:03:57;-0.60;99.90
9383;DHT22;4731;49.708;10.816;2023-02-15T03:06:30;1.50;99.90
9383;DHT22;4731;49.708;10.816;2023-02-15T03:09:03;-0.80;99.90
9383;DHT22;4731;49.708;10.816;2023-02-15T03:11:33;-0.90;99.90
9383;DHT22;4731;49.708;10.816;2023-02-15T03:14:00;-0.80;99.90
9383;DHT22;4731;49.708;10.816;2023-02-15T03:16:27;-0.70;99.90
9383;DHT22;4731;49.708;10.816;2023-02-15T03:19:01;-0.70;99.90
9383;DHT22;4731;49.708;10.816;2023-02-15T03:21:33;-0.70;99.90
9383;DHT22;4731;49.708;10.816;2023-02-15T03:24:04;-0.70;99.90
9383;DHT22;4731;49.708;10.816;2023-02-15T03:26:34;-0.60;99.90
9383;DHT22;4731;49.708;10.816;2023-02-15T03:29:04;-0.60;99.90
9383;DHT22;4731;49.708;10.816;2023-02-15T03:31:35;-0.60;99.90
9383;DHT22;4731;49.708;10.816;2023-02-15T03:34:08;-0.60;99.90
9383;DHT22;4731;49.708;10.816;2023-02-15T03:36:41;-0.60;99.90
9383;DHT22;4731;49.708;10.816;2023-02-15T03:39:14;-0.60;99.90
9383;DHT22;4731;49.708;10.816;2023-02-15T03:41:48;-0.50;99.90
9383;DHT22;4731;49.708;10.816;2023-02-15T03:44:20;-0.60;99.90
9383;DHT22;4731;49.708;10.816;2023-02-15T03:46:49;-0.70;99.90
9383;DHT22;4731;49.708;10.816;2023-02-15T03:49:23;-0.80;99.90
9383;DHT22;4731;49.708;10.816;2023-02-15T03:51:53;-0.90;99.90
9383;DHT22;4731;49.708;10.816;2023-02-15T03:54:24;-1.00;99.90
9383;DHT22;4731;49.708;10.816;2023-02-15T03:57:16;-0.90;99.90
9383;DHT22;4731;49.708;10.816;2023-02-15T04:00:09;-0.90;99.90
9383;DHT22;4731;49.708;10.816;2023-02-15T04:03:21;-0.90;99.90
9383;DHT22;4731;49.708;10.816;2023-02-15T04:05:50;-0.90;99.90
9383;DHT22;4731;49.708;10.816;2023-02-15T04:08:17;-0.90;99.90
9383;DHT22;4731;49.708;10.816;2023-02-15T04:10:44;-0.80;99.90
9383;DHT22;4731;49.708;10.816;2023-02-15T04:13:21;-0.80;99.90
9383;DHT22;4731;49.708;10.816;2023-02-15T04:15:48;-0.90;99.90
9383;DHT22;4731;49.708;10.816;2023-02-15T04:18:29;-0.90;99.90
9383;DHT22;4731;49.708;10.816;2023-02-15T04:21:15;-1.00;99.90
9383;DHT22;4731;49.708;10.816;2023-02-15T04:23:59;-1.10;99.90
9383;DHT22;4731;49.708;10.816;2023-02-15T04:26:43;-1.10;99.90
9383;DHT22;4731;49.708;10.816;2023-02-15T04:29:11;-1.10;99.90
9383;DHT22;4731;49.708;10.816;2023-02-15T04:31:38;-1.10;99.90
9383;DHT22;4731;49.708;10.816;2023-02-15T04:34:04;-1.10;99.90
9383;DHT22;4731;49.708;10.816;2023-02-15T04:36:32;-1.10;99.90
9383;DHT22;4731;49.708;10.816;2023-02-15T04:38:59;-1.00;99.90
9383;DHT22;4731;49.708;10.816;2023-02-15T04:41:26;-0.90;99.90
9383;DHT22;4731;49.708;10.816;2023-02-15T04:43:52;-1.00;99.90
9383;DHT22;4731;49.708;10.816;2023-02-15T04:46:19;-1.00;99.90
9383;DHT22;4731;49.708;10.816;2023-02-15T04:48:46;-0.90;99.90
9383;DHT22;4731;49.708;10.816;2023-02-15T04:51:13;-0.90;99.90
9383;DHT22;4731;49.708;10.816;2023-02-15T04:53:41;-1.00;99.90
9383;DHT22;4731;49.708;10.816;2023-02-15T04:56:07;-1.00;99.90
9383;DHT22;4731;49.708;10.816;2023-02-15T04:58:34;-1.10;99.90
9383;DHT22;4731;49.708;10.816;2023-02-15T05:01:02;-1.10;99.90
9383;DHT22;4731;49.708;10.816;2023-02-15T05:03:29;-1.00;99.90
9383;DHT22;4731;49.708;10.816;2023-02-15T05:05:56;-1.00;99.90
9383;DHT22;4731;49.708;10.816;2023-02-15T05:08:23;-1.00;99.90
9383;DHT22;4731;49.708;10.816;2023-02-15T05:10:51;-1.10;99.90
9383;DHT22;4731;49.708;10.816;2023-02-15T05:13:18;-0.40;99.90
9383;DHT22;4731;49.708;10.816;2023-02-15T05:15:47;-1.20;99.90
9383;DHT22;4731;49.708;10.816;2023-02-15T05:18:14;-1.20;99.90
9383;DHT22;4731;49.708;10.816;2023-02-15T05:20:41;-1.30;99.90
9383;DHT22;4731;49.708;10.816;2023-02-15T05:23:09;-1.20;99.90
9383;DHT22;4731;49.708;10.816;2023-02-15T05:25:35;-1.20;99.90
9383;DHT22;4731;49.708;10.816;2023-02-15T05:28:21;-1.20;99.90
9383;DHT22;4731;49.708;10.816;2023-02-15T05:30:50;-1.20;99.90
9383;DHT22;4731;49.708;10.816;2023-02-15T05:33:18;-1.20;99.90
9383;DHT22;4731;49.708;10.816;2023-02-15T05:35:44;-1.20;99.90
9383;DHT22;4731;49.708;10.816;2023-02-15T05:38:11;-1.30;99.90
9383;DHT22;4731;49.708;10.816;2023-02-15T05:40:38;-1.30;99.90
9383;DHT22;4731;49.708;10.816;2023-02-15T05:43:04;-1.30;99.90
9383;DHT22;4731;49.708;10.816;2023-02-15T05:45:32;-1.20;99.90
9383;DHT22;4731;49.708;10.816;2023-02-15T05:47:59;-1.20;99.90
9383;DHT22;4731;49.708;10.816;2023-02-15T05:50:26;0.70;99.90
9383;DHT22;4731;49.708;10.816;2023-02-15T05:52:53;-1.20;99.90
9383;DHT22;4731;49.708;10.816;2023-02-15T05:55:20;-1.30;99.90
9383;DHT22;4731;49.708;10.816;2023-02-15T05:57:46;-1.30;99.90
9383;DHT22;4731;49.708;10.816;2023-02-15T06:00:15;-1.30;99.90
9383;DHT22;4731;49.708;10.816;2023-02-15T06:02:43;-1.20;99.90
9383;DHT22;4731;49.708;10.816;2023-02-15T06:05:10;-3.20;99.90
9383;DHT22;4731;49.708;10.816;2023-02-15T06:07:37;-1.30;99.90
9383;DHT22;4731;49.708;10.816;2023-02-15T06:10:04;-1.30;99.90
9383;DHT22;4731;49.708;10.816;2023-02-15T06:12:31;-1.30;99.90
9383;DHT22;4731;49.708;10.816;2023-02-15T06:14:58;-1.40;99.90
9383;DHT22;4731;49.708;10.816;2023-02-15T06:17:25;-1.40;99.90
9383;DHT22;4731;49.708;10.816;2023-02-15T06:19:53;-1.40;99.90
9383;DHT22;4731;49.708;10.816;2023-02-15T06:22:19;-1.40;99.90
9383;DHT22;4731;49.708;10.816;2023-02-15T06:24:46;-1.40;99.90
9383;DHT22;4731;49.708;10.816;2023-02-15T06:27:13;-1.40;99.90
9383;DHT22;4731;49.708;10.816;2023-02-15T06:29:40;-1.40;99.90
9383;DHT22;4731;49.708;10.816;2023-02-15T06:32:07;-1.30;99.90
9383;DHT22;4731;49.708;10.816;2023-02-15T06:34:33;-1.30;99.90
9383;DHT22;4731;49.708;10.816;2023-02-15T06:37:01;-1.20;99.90
9383;DHT22;4731;49.708;10.816;2023-02-15T06:39:28;-1.20;99.90
9383;DHT22;4731;49.708;10.816;2023-02-15T06:41:55;-1.30;99.90
9383;DHT22;4731;49.708;10.816;2023-02-15T06:44:21;-1.20;99.90
9383;DHT22;4731;49.708;10.816;2023-02-15T06:46:48;-1.30;99.90
9383;DHT22;4731;49.708;10.816;2023-02-15T06:49:15;-1.40;99.90
9383;DHT22;4731;49.708;10.816;2023-02-15T06:51:42;-1.30;99.90
9383;DHT22;4731;49.708;10.816;2023-02-15T06:54:10;-1.40;99.90
9383;DHT22;4731;49.708;10.816;2023-02-15T06:56:37;-1.40;99.90
9383;DHT22;4731;49.708;10.816;2023-02-15T06:59:04;-1.50;99.90
9383;DHT22;4731;49.708;10.816;2023-02-15T07:01:30;-1.50;99.90
9383;DHT22;4731;49.708;10.816;2023-02-15T07:03:57;-1.70;99.90
9383;DHT22;4731;49.708;10.816;2023-02-15T07:06:24;-1.70;99.90
9383;DHT22;4731;49.708;10.816;2023-02-15T07:08:51;-1.70;99.90
9383;DHT22;4731;49.708;10.816;2023-02-15T07:11:19;-1.70;99.90
9383;DHT22;4731;49.708;10.816;2023-02-15T07:14:03;-1.70;99.90
9383;DHT22;4731;49.708;10.816;2023-02-15T07:16:30;-1.60;99.90
9383;DHT22;4731;49.708;10.816;2023-02-15T07:18:57;-1.60;99.90
9383;DHT22;4731;49.708;10.816;2023-02-15T07:21:23;-1.60;99.90
9383;DHT22;4731;49.708;10.816;2023-02-15T07:23:50;-1.60;99.90
9383;DHT22;4731;49.708;10.816;2023-02-15T07:26:19;-1.70;99.90
9383;DHT22;4731;49.708;10.816;2023-02-15T07:28:46;-1.60;99.90
9383;DHT22;4731;49.708;10.816;2023-02-15T07:31:12;-1.40;99.90
9383;DHT22;4731;49.708;10.816;2023-02-15T07:33:39;-1.30;99.90
9383;DHT22;4731;49.708;10.816;2023-02-15T07:36:07;-1.40;99.90
9383;DHT22;4731;49.708;10.816;2023-02-15T07:38:38;-1.40;99.90
9383;DHT22;4731;49.708;10.816;2023-02-15T07:41:06;-1.40;99.90
9383;DHT22;4731;49.708;10.816;2023-02-15T07:43:36;-1.50;99.90
9383;DHT22;4731;49.708;10.816;2023-02-15T07:46:04;-1.50;99.90
9383;DHT22;4731;49.708;10.816;2023-02-15T07:48:36;-1.60;99.90
9383;DHT22;4731;49.708;10.816;2023-02-15T07:51:06;-1.50;99.90
9383;DHT22;4731;49.708;10.816;2023-02-15T07:53:33;-1.50;99.90
9383;DHT22;4731;49.708;10.816;2023-02-15T07:56:01;-1.50;99.90
9383;DHT22;4731;49.708;10.816;2023-02-15T07:58:28;-1.40;99.90
9383;DHT22;4731;49.708;10.816;2023-02-15T08:01:09;-1.40;99.90
9383;DHT22;4731;49.708;10.816;2023-02-15T08:03:36;-1.40;99.90
9383;DHT22;4731;49.708;10.816;2023-02-15T08:06:03;-1.40;99.90
9383;DHT22;4731;49.708;10.816;2023-02-15T08:08:30;-1.30;99.90
9383;DHT22;4731;49.708;10.816;2023-02-15T08:11:01;-1.30;99.90
9383;DHT22;4731;49.708;10.816;2023-02-15T08:13:46;-1.30;99.90
9383;DHT22;4731;49.708;10.816;2023-02-15T08:16:23;-1.30;99.90
9383;DHT22;4731;49.708;10.816;2023-02-15T08:18:51;-1.20;99.90
9383;DHT22;4731;49.708;10.816;2023-02-15T08:21:18;-1.10;99.90
9383;DHT22;4731;49.708;10.816;2023-02-15T08:23:45;-1.10;99.90
9383;DHT22;4731;49.708;10.816;2023-02-15T08:26:12;-1.10;99.90
9383;DHT22;4731;49.708;10.816;2023-02-15T08:28:40;-1.10;99.90
9383;DHT22;4731;49.708;10.816;2023-02-15T08:31:08;-1.20;99.90
9383;DHT22;4731;49.708;10.816;2023-02-15T08:33:38;-1.20;99.90
9383;DHT22;4731;49.708;10.816;2023-02-15T08:36:09;-1.20;99.90
9383;DHT22;4731;49.708;10.816;2023-02-15T08:38:36;-1.10;99.90
9383;DHT22;4731;49.708;10.816;2023-02-15T08:41:14;-0.90;99.90
9383;DHT22;4731;49.708;10.816;2023-02-15T08:43:41;-1.10;99.90
9383;DHT22;4731;49.708;10.816;2023-02-15T08:46:09;-0.90;99.90
9383;DHT22;4731;49.708;10.816;2023-02-15T08:48:38;-1.00;99.90
9383;DHT22;4731;49.708;10.816;2023-02-15T08:51:07;-1.00;99.90
9383;DHT22;4731;49.708;10.816;2023-02-15T08:53:36;-1.00;99.90
9383;DHT22;4731;49.708;10.816;2023-02-15T08:56:06;-0.90;99.90
9383;DHT22;4731;49.708;10.816;2023-02-15T08:58:37;-1.20;99.90
9383;DHT22;4731;49.708;10.816;2023-02-15T09:01:10;-1.30;99.90
9383;DHT22;4731;49.708;10.816;2023-02-15T09:03:39;-1.20;99.90
9383;DHT22;4731;49.708;10.816;2023-02-15T09:06:07;-1.10;99.90
9383;DHT22;4731;49.708;10.816;2023-02-15T09:08:36;-1.00;99.90
9383;DHT22;4731;49.708;10.816;2023-02-15T09:11:08;-1.00;99.90
9383;DHT22;4731;49.708;10.816;2023-02-15T09:13:35;-1.00;99.90
9383;DHT22;4731;49.708;10.816;2023-02-15T09:16:03;-0.90;99.90
9383;DHT22;4731;49.708;10.816;2023-02-15T09:18:32;-0.90;99.90
9383;DHT22;4731;49.708;10.816;2023-02-15T09:21:06;-0.70;99.90
9383;DHT22;4731;49.708;10.816;2023-02-15T09:23:33;-0.70;99.90
9383;DHT22;4731;49.708;10.816;2023-02-15T09:26:03;-0.50;99.90
9383;DHT22;4731;49.708;10.816;2023-02-15T09:28:30;-0.40;99.90
9383;DHT22;4731;49.708;10.816;2023-02-15T09:31:05;-0.30;99.90
9383;DHT22;4731;49.708;10.816;2023-02-15T09:33:33;-0.40;99.90
9383;DHT22;4731;49.708;10.816;2023-02-15T09:36:01;-0.50;99.90
9383;DHT22;4731;49.708;10.816;2023-02-15T09:38:29;-0.80;99.90
9383;DHT22;4731;49.708;10.816;2023-02-15T09:41:10;-0.80;99.90
9383;DHT22;4731;49.708;10.816;2023-02-15T09:43:40;-0.70;99.90
9383;DHT22;4731;49.708;10.816;2023-02-15T09:46:27;-0.80;99.90
9383;DHT22;4731;49.708;10.816;2023-02-15T09:49:07;-0.90;99.90
9383;DHT22;4731;49.708;10.816;2023-02-15T09:51:50;-0.80;99.90
9383;DHT22;4731;49.708;10.816;2023-02-15T09:54:36;-0.70;99.90
9383;DHT22;4731;49.708;10.816;2023-02-15T09:57:10;-0.80;99.90
9383;DHT22;4731;49.708;10.816;2023-02-15T09:59:45;-0.80;99.90
9383;DHT22;4731;49.708;10.816;2023-02-15T10:02:27;-0.70;99.90
9383;DHT22;4731;49.708;10.816;2023-02-15T10:05:05;-0.90;99.90
9383;DHT22;4731;49.708;10.816;2023-02-15T10:07:55;-0.80;99.90
9383;DHT22;4731;49.708;10.816;2023-02-15T10:10:38;-0.90;99.90
9383;DHT22;4731;49.708;10.816;2023-02-15T10:13:20;-1.00;99.90
9383;DHT22;4731;49.708;10.816;2023-02-15T10:16:05;-0.90;99.90
9383;DHT22;4731;49.708;10.816;2023-02-15T10:18:42;-0.70;99.90
9383;DHT22;4731;49.708;10.816;2023-02-15T10:21:23;-0.70;99.90
9383;DHT22;4731;49.708;10.816;2023-02-15T10:24:19;-0.50;99.90
9383;DHT22;4731;49.708;10.816;2023-02-15T10:26:55;-0.60;99.90
9383;DHT22;4731;49.708;10.816;2023-02-15T10:29:34;-0.70;99.90
9383;DHT22;4731;49.708;10.816;2023-02-15T10:32:09;-0.60;99.90
9383;DHT22;4731;49.708;10.816;2023-02-15T10:34:39;-0.40;99.90
9383;DHT22;4731;49.708;10.816;2023-02-15T10:40:18;-0.40;99.90
9383;DHT22;4731;49.708;10.816;2023-02-15T10:43:12;-0.50;99.90
9383;DHT22;4731;49.708;10.816;2023-02-15T10:45:49;-0.30;99.90
9383;DHT22;4731;49.708;10.816;2023-02-15T10:48:35;0.80;99.90
9383;DHT22;4731;49.708;10.816;2023-02-15T10:51:09;0.10;99.90
9383;DHT22;4731;49.708;10.816;2023-02-15T10:53:53;-0.30;99.90
9383;DHT22;4731;49.708;10.816;2023-02-15T10:56:28;0.00;99.90
9383;DHT22;4731;49.708;10.816;2023-02-15T10:59:13;-0.10;99.90
9383;DHT22;4731;49.708;10.816;2023-02-15T11:01:49;-0.30;99.90
9383;DHT22;4731;49.708;10.816;2023-02-15T11:04:36;-0.20;99.90
9383;DHT22;4731;49.708;10.816;2023-02-15T11:07:08;-0.20;99.90
9383;DHT22;4731;49.708;10.816;2023-02-15T11:09:44;-0.10;99.90
9383;DHT22;4731;49.708;10.816;2023-02-15T11:12:16;0.10;99.90
9383;DHT22;4731;49.708;10.816;2023-02-15T11:14:51;0.30;99.90
9383;DHT22;4731;49.708;10.816;2023-02-15T11:17:22;0.20;99.90
9383;DHT22;4731;49.708;10.816;2023-02-15T11:19:56;-0.20;99.90
9383;DHT22;4731;49.708;10.816;2023-02-15T11:22:26;-0.20;99.90
9383;DHT22;4731;49.708;10.816;2023-02-15T11:24:54;0.30;99.90
9383;DHT22;4731;49.708;10.816;2023-02-15T11:27:26;-0.20;99.90
9383;DHT22;4731;49.708;10.816;2023-02-15T11:29:59;-0.20;99.90
9383;DHT22;4731;49.708;10.816;2023-02-15T11:32:29;0.20;99.90
9383;DHT22;4731;49.708;10.816;2023-02-15T11:35:01;0.60;99.90
9383;DHT22;4731;49.708;10.816;2023-02-15T11:37:35;0.30;99.90
9383;DHT22;4731;49.708;10.816;2023-02-15T11:40:15;0.40;99.90
9383;DHT22;4731;49.708;10.816;2023-02-15T11:42:45;0.60;99.90
9383;DHT22;4731;49.708;10.816;2023-02-15T11:45:21;0.60;99.90
9383;DHT22;4731;49.708;10.816;2023-02-15T11:47:49;0.60;99.90
9383;DHT22;4731;49.708;10.816;2023-02-15T11:50:19;1.20;99.90
9383;DHT22;4731;49.708;10.816;2023-02-15T11:52:47;0.80;99.90
9383;DHT22;4731;49.708;10.816;2023-02-15T11:55:18;0.80;99.90
9383;DHT22;4731;49.708;10.816;2023-02-15T11:57:49;0.70;99.90
9383;DHT22;4731;49.708;10.816;2023-02-15T12:00:30;0.80;99.90
9383;DHT22;4731;49.708;10.816;2023-02-15T12:03:05;0.70;99.90
9383;DHT22;4731;49.708;10.816;2023-02-15T12:05:36;0.60;99.90
9383;DHT22;4731;49.708;10.816;2023-02-15T12:08:12;0.80;99.90
9383;DHT22;4731;49.708;10.816;2023-02-15T12:10:44;1.10;99.90
9383;DHT22;4731;49.708;10.816;2023-02-15T12:13:18;1.20;99.90
9383;DHT22;4731;49.708;10.816;2023-02-15T12:15:48;1.20;99.90
9383;DHT22;4731;49.708;10.816;2023-02-15T12:18:32;1.30;99.90
9383;DHT22;4731;49.708;10.816;2023-02-15T12:21:02;1.20;99.90
9383;DHT22;4731;49.708;10.816;2023-02-15T12:23:31;1.40;99.90
9383;DHT22;4731;49.708;10.816;2023-02-15T12:25:58;1.50;99.90
9383;DHT22;4731;49.708;10.816;2023-02-15T12:28:31;1.70;99.90
9383;DHT22;4731;49.708;10.816;2023-02-15T12:31:01;1.80;99.90
9383;DHT22;4731;49.708;10.816;2023-02-15T12:33:30;1.60;99.90
9383;DHT22;4731;49.708;10.816;2023-02-15T12:36:01;1.80;99.90
9383;DHT22;4731;49.708;10.816;2023-02-15T12:38:30;1.40;99.90
9383;DHT22;4731;49.708;10.816;2023-02-15T12:40:58;1.50;99.90
9383;DHT22;4731;49.708;10.816;2023-02-15T12:43:27;1.60;99.90
9383;DHT22;4731;49.708;10.816;2023-02-15T12:46:18;1.70;99.90
9383;DHT22;4731;49.708;10.816;2023-02-15T12:48:46;1.70;99.90
9383;DHT22;4731;49.708;10.816;2023-02-15T12:51:14;1.70;99.90
9383;DHT22;4731;49.708;10.816;2023-02-15T12:53:41;1.70;99.90
9383;DHT22;4731;49.708;10.816;2023-02-15T12:56:09;1.60;99.90
9383;DHT22;4731;49.708;10.816;2023-02-15T12:58:37;1.70;99.90
9383;DHT22;4731;49.708;10.816;2023-02-15T13:01:11;1.60;99.90
9383;DHT22;4731;49.708;10.816;2023-02-15T13:03:55;1.90;99.90
9383;DHT22;4731;49.708;10.816;2023-02-15T13:06:22;1.80;99.90
9383;DHT22;4731;49.708;10.816;2023-02-15T13:08:52;1.90;99.90
9383;DHT22;4731;49.708;10.816;2023-02-15T13:11:22;2.10;99.90
9383;DHT22;4731;49.708;10.816;2023-02-15T13:13:53;2.10;99.90
9383;DHT22;4731;49.708;10.816;2023-02-15T13:16:27;2.20;99.90
9383;DHT22;4731;49.708;10.816;2023-02-15T13:18:57;2.40;99.90
9383;DHT22;4731;49.708;10.816;2023-02-15T13:21:32;2.30;99.90
9383;DHT22;4731;49.708;10.816;2023-02-15T13:24:05;2.30;99.90
9383;DHT22;4731;49.708;10.816;2023-02-15T13:26:32;2.10;99.90
9383;DHT22;4731;49.708;10.816;2023-02-15T13:29:06;2.10;99.90
9383;DHT22;4731;49.708;10.816;2023-02-15T13:31:35;2.10;99.90
9383;DHT22;4731;49.708;10.816;2023-02-15T13:34:12;2.10;99.90
9383;DHT22;4731;49.708;10.816;2023-02-15T13:36:48;2.40;99.90
9383;DHT22;4731;49.708;10.816;2023-02-15T13:39:23;2.60;99.90
9383;DHT22;4731;49.708;10.816;2023-02-15T13:41:58;3.00;99.90
9383;DHT22;4731;49.708;10.816;2023-02-15T13:44:54;3.10;99.90
9383;DHT22;4731;49.708;10.816;2023-02-15T13:47:28;3.00;99.90
9383;DHT22;4731;49.708;10.816;2023-02-15T13:50:17;3.10;99.90
9383;DHT22;4731;49.708;10.816;2023-02-15T13:52:51;3.30;99.90
9383;DHT22;4731;49.708;10.816;2023-02-15T13:55:31;3.60;99.90
9383;DHT22;4731;49.708;10.816;2023-02-15T13:58:34;3.60;99.90
9383;DHT22;4731;49.708;10.816;2023-02-15T14:01:09;3.70;99.90
9383;DHT22;4731;49.708;10.816;2023-02-15T14:04:10;3.80;99.90
9383;DHT22;4731;49.708;10.816;2023-02-15T14:06:49;4.00;99.90
9383;DHT22;4731;49.708;10.816;2023-02-15T14:09:28;4.40;99.90
9383;DHT22;4731;49.708;10.816;2023-02-15T14:12:08;4.90;99.90
9383;DHT22;4731;49.708;10.816;2023-02-15T14:14:52;5.10;99.90
9383;DHT22;4731;49.708;10.816;2023-02-15T14:17:34;5.10;99.90
9383;DHT22;4731;49.708;10.816;2023-02-15T14:20:14;4.80;99.90
9383;DHT22;4731;49.708;10.816;2023-02-15T14:22:48;4.50;99.90
9383;DHT22;4731;49.708;10.816;2023-02-15T14:25:20;4.40;99.90
9383;DHT22;4731;49.708;10.816;2023-02-15T14:27:59;4.30;99.90
9383;DHT22;4731;49.708;10.816;2023-02-15T14:30:32;5.00;99.90
9383;DHT22;4731;49.708;10.816;2023-02-15T14:33:05;4.00;99.90
9383;DHT22;4731;49.708;10.816;2023-02-15T14:35:33;4.20;99.90
9383;DHT22;4731;49.708;10.816;2023-02-15T14:38:06;4.00;99.90
9383;DHT22;4731;49.708;10.816;2023-02-15T14:40:42;4.20;99.90
9383;DHT22;4731;49.708;10.816;2023-02-15T14:43:48;4.10;99.90
9383;DHT22;4731;49.708;10.816;2023-02-15T14:46:22;4.10;99.90
9383;DHT22;4731;49.708;10.816;2023-02-15T14:48:53;4.40;99.90
9383;DHT22;4731;49.708;10.816;2023-02-15T14:54:55;6.50;99.90
9383;DHT22;4731;49.708;10.816;2023-02-15T14:57:25;5.50;99.90
9383;DHT22;4731;49.708;10.816;2023-02-15T14:59:54;6.50;99.90
9383;DHT22;4731;49.708;10.816;2023-02-15T15:02:25;6.10;99.90
9383;DHT22;4731;49.708;10.816;2023-02-15T15:05:00;5.90;99.90
9383;DHT22;4731;49.708;10.816;2023-02-15T15:07:34;7.50;99.90
9383;DHT22;4731;49.708;10.816;2023-02-15T15:10:05;5.70;99.90
9383;DHT22;4731;49.708;10.816;2023-02-15T15:12:41;7.20;99.90
9383;DHT22;4731;49.708;10.816;2023-02-15T15:15:13;6.30;99.90
9383;DHT22;4731;49.708;10.816;2023-02-15T15:18:00;6.50;99.90
9383;DHT22;4731;49.708;10.816;2023-02-15T15:20:46;6.80;99.90
9383;DHT22;4731;49.708;10.816;2023-02-15T15:23:38;6.80;99.90
9383;DHT22;4731;49.708;10.816;2023-02-15T15:29:02;3.70;99.90
9383;DHT22;4731;49.708;10.816;2023-02-15T15:31:41;5.50;99.90
9383;DHT22;4731;49.708;10.816;2023-02-15T15:34:19;5.00;99.90
9383;DHT22;4731;49.708;10.816;2023-02-15T15:40:18;4.20;99.90
9383;DHT22;4731;49.708;10.816;2023-02-15T15:43:07;3.80;99.90
9383;DHT22;4731;49.708;10.816;2023-02-15T15:45:55;3.40;99.90
9383;DHT22;4731;49.708;10.816;2023-02-15T15:48:32;3.10;99.90
9383;DHT22;4731;49.708;10.816;2023-02-15T15:51:04;2.80;99.90
9383;DHT22;4731;49.708;10.816;2023-02-15T15:53:37;2.50;99.90
9383;DHT22;4731;49.708;10.816;2023-02-15T15:56:07;2.50;99.90
9383;DHT22;4731;49.708;10.816;2023-02-15T15:58:37;2.30;99.90
9383;DHT22;4731;49.708;10.816;2023-02-15T16:01:10;2.10;99.90
9383;DHT22;4731;49.708;10.816;2023-02-15T16:03:41;1.90;99.90
9383;DHT22;4731;49.708;10.816;2023-02-15T16:06:25;1.70;99.90
9383;DHT22;4731;49.708;10.816;2023-02-15T16:08:52;1.60;99.90
9383;DHT22;4731;49.708;10.816;2023-02-15T16:11:22;1.40;99.90
9383;DHT22;4731;49.708;10.816;2023-02-15T16:13:50;1.30;99.90
9383;DHT22;4731;49.708;10.816;2023-02-15T16:16:21;1.10;99.90
9383;DHT22;4731;49.708;10.816;2023-02-15T16:18:50;1.00;99.90
9383;DHT22;4731;49.708;10.816;2023-02-15T16:21:19;0.90;99.90
9383;DHT22;4731;49.708;10.816;2023-02-15T16:29:38;0.70;99.90
9383;DHT22;4731;49.708;10.816;2023-02-15T16:32:16;0.60;99.90
9383;DHT22;4731;49.708;10.816;2023-02-15T16:34:51;0.50;99.90
9383;DHT22;4731;49.708;10.816;2023-02-15T16:37:20;0.40;99.90
9383;DHT22;4731;49.708;10.816;2023-02-15T16:39:50;0.50;99.90